aviador You're here:

USSS Decoded Metar

SVERDLOVSK in RUSSIA
Report Time2018-04-21 03:30:00
UTC Time2018-04-21 04:01:17
Flight Rules vfr VFR
Wind010° at 10 kt
W.Decomp.*RWY 08: 1.0 kt HW 9.9 kt LCW
W.Rank010° ranks 29
Current wind is above 010° avg. (7.1)
Visibility9999 m
Phenomena:N/A
Clouds:N/A
Expected CloudBase > 2,000 ft AGL from Temp-Dew spread
CeilingNone
Temp-3°C (ISA -16)
Dew Point-8°C (69% RH)
AAT-9.5°C
QNH1004 hPa
Density Alt-902 ft
Elevation764 ft
Report Wrong Elevation
Raw Report
USSS 210330Z 01005MPS CAVOK M03/M08 Q1004 R26R/290337 NOSIG RMK
QFE733/0977=

Extra information for USSS:More info

Metar Taf Metar & Taf Last 4 Metars F.Rules Stats Wind Profile Meteogram Temp Stats Airport Information Weather charts Add Link Nearby VenuesMetar ALERT Operation Metar Decoded Social comments